createdAt,value
2022-08-05T00:02:21.881Z,27.74
2022-08-05T00:04:55.129Z,27.74
2022-08-05T00:07:59.402Z,27.74
2022-08-05T00:10:10.666Z,27.70
2022-08-05T00:12:56.781Z,27.31
2022-08-05T00:15:56.264Z,27.00
2022-08-05T00:18:15.029Z,26.47
2022-08-05T00:20:49.755Z,26.33
2022-08-05T00:23:16.422Z,26.19
2022-08-05T00:25:46.163Z,26.16
2022-08-05T00:28:13.622Z,26.01
2022-08-05T00:30:41.191Z,26.04
2022-08-05T00:33:15.684Z,26.04
2022-08-05T00:36:16.415Z,26.07
2022-08-05T00:38:44.294Z,26.13
2022-08-05T00:41:11.795Z,26.16
2022-08-05T00:43:47.283Z,26.05
2022-08-05T00:46:16.545Z,26.15
2022-08-05T00:48:50.660Z,26.04
2022-08-05T00:51:51.935Z,26.23
2022-08-05T00:54:06.262Z,26.28
2022-08-05T00:56:32.826Z,26.29
2022-08-05T00:59:00.351Z,26.19
2022-08-05T01:01:42.729Z,26.34
2022-08-05T01:04:14.092Z,26.39
2022-08-05T01:06:43.850Z,26.34
2022-08-05T01:09:20.107Z,26.47
2022-08-05T01:11:49.638Z,26.56
2022-08-05T01:14:37.415Z,26.64
2022-08-05T01:17:10.719Z,26.65
2022-08-05T01:20:01.204Z,26.54
2022-08-05T01:22:57.475Z,26.51
2022-08-05T01:25:24.102Z,26.49
2022-08-05T01:28:20.442Z,26.31
2022-08-05T01:30:53.780Z,26.34
2022-08-05T01:33:25.173Z,26.25
2022-08-05T01:35:55.536Z,26.13
2022-08-05T01:38:29.225Z,26.11
2022-08-05T01:41:07.001Z,26.00
2022-08-05T01:43:34.035Z,25.99
2022-08-05T01:46:07.559Z,25.97
2022-08-05T01:48:49.825Z,25.97
2022-08-05T01:51:18.416Z,25.92
2022-08-05T01:53:57.887Z,25.88
2022-08-05T01:58:10.383Z,25.81
2022-08-05T01:59:17.840Z,25.59
2022-08-05T02:01:49.078Z,25.57
2022-08-05T02:04:18.263Z,25.47
2022-08-05T02:06:45.214Z,25.53
2022-08-05T02:09:12.074Z,25.49
2022-08-05T02:11:57.036Z,25.42
2022-08-05T02:14:32.388Z,25.33
2022-08-05T02:17:26.234Z,25.30
2022-08-05T02:20:03.160Z,25.26
2022-08-05T02:22:35.303Z,25.24
2022-08-05T02:25:19.578Z,25.21
2022-08-05T02:27:58.190Z,25.12
2022-08-05T02:30:30.824Z,25.11
2022-08-05T02:32:59.783Z,25.00
2022-08-05T02:35:37.429Z,24.87
2022-08-05T02:38:06.169Z,24.70
2022-08-05T02:40:37.479Z,24.67
2022-08-05T02:43:07.276Z,24.00
2022-08-05T02:45:52.951Z,23.42
2022-08-05T02:48:29.582Z,22.72
2022-08-05T02:51:00.147Z,22.21
2022-08-05T02:53:27.068Z,21.95
2022-08-05T02:55:59.926Z,21.59
2022-08-05T02:58:30.345Z,21.55
2022-08-05T03:01:00.208Z,21.56
2022-08-05T03:03:33.767Z,21.44
2022-08-05T03:06:55.283Z,21.47
2022-08-05T03:09:04.535Z,21.44
2022-08-05T03:11:54.980Z,21.42
2022-08-05T03:14:18.072Z,21.37
2022-08-05T03:16:45.816Z,21.41
2022-08-05T03:19:29.434Z,21.43
2022-08-05T03:21:59.597Z,21.48
2022-08-05T03:24:30.475Z,21.44
2022-08-05T03:27:00.032Z,21.44
2022-08-05T03:29:45.535Z,21.33
2022-08-05T03:32:15.557Z,21.40
2022-08-05T03:34:50.778Z,21.35
2022-08-05T03:37:18.988Z,21.49
2022-08-05T03:40:01.242Z,21.37
2022-08-05T03:42:32.478Z,21.21
2022-08-05T03:44:59.818Z,21.21
2022-08-05T03:47:30.284Z,21.19
2022-08-05T03:49:57.562Z,21.06
2022-08-05T03:52:48.367Z,20.94
2022-08-05T03:56:00.856Z,21.14
2022-08-05T03:58:17.943Z,21.21
2022-08-05T04:00:46.494Z,21.21
2022-08-05T04:03:28.207Z,21.03
2022-08-05T04:05:58.031Z,21.17
2022-08-05T04:08:34.736Z,21.07
2022-08-05T04:11:05.191Z,21.09
2022-08-05T04:13:50.059Z,20.91
2022-08-05T04:16:25.152Z,20.97
2022-08-05T04:18:57.947Z,20.94
2022-08-05T04:22:10.119Z,20.96
2022-08-05T04:24:19.310Z,20.85
2022-08-05T04:26:49.703Z,20.83
2022-08-05T04:29:16.705Z,20.70
2022-08-05T04:31:43.248Z,20.55
2022-08-05T04:34:31.473Z,20.65
2022-08-05T04:36:56.529Z,20.80
2022-08-05T04:39:23.227Z,20.84
2022-08-05T04:41:51.349Z,20.97
2022-08-05T04:44:21.247Z,20.95
2022-08-05T04:46:50.977Z,20.99
2022-08-05T04:49:19.442Z,21.00
2022-08-05T04:52:05.026Z,20.75
2022-08-05T04:54:34.422Z,20.95
2022-08-05T04:57:01.328Z,20.86
2022-08-05T04:59:38.450Z,20.79
2022-08-05T05:02:41.330Z,21.09
2022-08-05T05:04:52.921Z,21.25
2022-08-05T05:07:29.754Z,21.32
2022-08-05T05:10:02.318Z,21.40
2022-08-05T05:12:29.656Z,21.35
2022-08-05T05:14:56.481Z,21.23
2022-08-05T05:17:55.822Z,21.19
2022-08-05T05:20:12.118Z,21.37
2022-08-05T05:22:40.861Z,21.45
2022-08-05T05:25:16.995Z,21.64
2022-08-05T05:27:45.888Z,21.70
2022-08-05T05:30:29.275Z,21.52
2022-08-05T05:33:00.878Z,21.75
2022-08-05T05:35:37.977Z,21.74
2022-08-05T05:38:08.965Z,21.74
2022-08-05T05:40:43.774Z,21.67
2022-08-05T05:43:16.387Z,21.75
2022-08-05T05:45:54.753Z,21.98
2022-08-05T05:48:27.631Z,21.92
2022-08-05T05:50:54.710Z,22.14
2022-08-05T05:53:22.754Z,22.27
2022-08-05T05:55:52.310Z,22.31
2022-08-05T05:58:31.881Z,22.45
2022-08-05T06:01:02.480Z,22.50
2022-08-05T06:04:00.352Z,22.55
2022-08-05T06:06:28.120Z,22.22
2022-08-05T06:08:58.665Z,22.64
2022-08-05T06:11:26.096Z,22.82
2022-08-05T06:13:55.551Z,22.90
2022-08-05T06:16:28.359Z,22.92
2022-08-05T06:19:00.818Z,22.99
2022-08-05T06:21:37.105Z,23.42
2022-08-05T06:24:11.279Z,23.45
2022-08-05T06:26:39.576Z,23.37
2022-08-05T06:29:23.571Z,23.19
2022-08-05T06:32:05.752Z,22.99
2022-08-05T06:34:48.203Z,23.26
2022-08-05T06:37:56.014Z,23.45
2022-08-05T06:40:07.530Z,23.52
2022-08-05T06:42:34.115Z,23.54
2022-08-05T06:45:00.791Z,23.41
2022-08-05T06:48:36.023Z,23.05
2022-08-05T06:50:19.089Z,22.97
2022-08-05T06:52:58.455Z,23.02
2022-08-05T06:55:25.778Z,23.13
2022-08-05T06:58:02.824Z,23.11
2022-08-05T07:00:41.207Z,22.95
2022-08-05T07:03:09.823Z,22.84
2022-08-05T07:05:37.174Z,22.94
2022-08-05T07:08:04.845Z,22.88
2022-08-05T07:10:32.743Z,22.83
2022-08-05T07:13:17.825Z,22.75
2022-08-05T07:17:55.962Z,22.67
2022-08-05T07:19:09.957Z,23.08
2022-08-05T07:22:01.099Z,23.30
2022-08-05T07:24:23.772Z,23.82
2022-08-05T07:26:55.453Z,24.34
2022-08-05T07:30:22.144Z,24.98
2022-08-05T07:32:08.873Z,25.28
2022-08-05T07:34:39.231Z,25.51
2022-08-05T07:37:09.187Z,25.26
2022-08-05T07:40:26.527Z,25.28
2022-08-05T07:42:31.779Z,25.00
2022-08-05T07:45:00.962Z,24.99
2022-08-05T07:47:27.726Z,24.97
2022-08-05T07:50:09.674Z,24.87
2022-08-05T07:52:40.830Z,24.92
2022-08-05T07:55:44.509Z,25.11
2022-08-05T07:58:02.476Z,25.18
2022-08-05T08:00:29.929Z,24.93
2022-08-05T08:03:14.730Z,24.70
2022-08-05T08:05:49.461Z,24.52
2022-08-05T08:08:17.044Z,24.41
2022-08-05T08:10:48.720Z,24.26
2022-08-05T08:13:15.837Z,23.98
2022-08-05T08:16:42.996Z,24.01
2022-08-05T08:18:35.806Z,24.25
2022-08-05T08:21:09.855Z,24.54
2022-08-05T08:24:02.841Z,24.86
2022-08-05T08:26:30.772Z,25.18
2022-08-05T08:29:21.586Z,25.46
2022-08-05T08:31:45.568Z,25.31
2022-08-05T08:40:42.048Z,24.75
2022-08-05T08:45:17.182Z,24.62
2022-08-05T08:46:06.663Z,24.98
2022-08-05T08:49:01.014Z,25.20
2022-08-05T08:52:04.360Z,25.23
2022-08-05T08:54:18.263Z,25.39
2022-08-05T08:56:47.435Z,25.62
2022-08-05T08:59:21.025Z,25.69
2022-08-05T09:01:57.650Z,25.56
2022-08-05T09:04:30.513Z,25.65
2022-08-05T09:06:57.827Z,25.66
2022-08-05T09:09:26.011Z,25.63
2022-08-05T09:12:19.868Z,25.51
2022-08-05T09:14:58.424Z,25.65
2022-08-05T09:17:40.622Z,25.94
2022-08-05T09:20:09.587Z,25.90
2022-08-05T09:23:19.709Z,26.05
2022-08-05T09:26:03.413Z,25.64
2022-08-05T09:28:34.594Z,25.38
2022-08-05T09:31:22.199Z,25.36
2022-08-05T09:34:03.694Z,25.41
2022-08-05T09:36:55.614Z,25.51
2022-08-05T09:39:39.262Z,25.53
2022-08-05T09:42:23.219Z,25.49
2022-08-05T09:44:56.401Z,25.52
2022-08-05T09:47:34.953Z,25.55
2022-08-05T09:50:13.100Z,25.57
2022-08-05T09:52:45.301Z,25.56
2022-08-05T09:55:58.343Z,25.70
2022-08-05T09:58:00.169Z,25.58
2022-08-05T10:00:29.713Z,25.60
2022-08-05T10:02:58.474Z,25.79
2022-08-05T10:05:27.883Z,25.83
2022-08-05T10:08:11.171Z,25.98
2022-08-05T10:10:53.933Z,25.75
2022-08-05T10:13:54.566Z,25.72
2022-08-05T10:16:29.564Z,25.84
2022-08-05T10:18:57.144Z,25.74
2022-08-05T10:21:24.226Z,25.60
2022-08-05T10:23:59.846Z,25.62
2022-08-05T10:26:32.286Z,25.56
2022-08-05T10:29:00.674Z,25.66
2022-08-05T10:32:52.971Z,25.79
2022-08-05T10:34:13.861Z,26.10
2022-08-05T10:36:41.833Z,26.22
2022-08-05T10:39:25.276Z,26.24
2022-08-05T10:42:18.786Z,25.81
2022-08-05T10:44:59.298Z,25.93
2022-08-05T10:47:36.543Z,26.10
2022-08-05T10:50:32.455Z,26.27
2022-08-05T10:53:01.107Z,26.32
2022-08-05T10:55:30.565Z,26.37
2022-08-05T10:58:11.404Z,26.42
2022-08-05T11:00:42.214Z,26.52
2022-08-05T11:03:23.545Z,26.59
2022-08-05T11:06:14.693Z,26.71
2022-08-05T11:09:13.228Z,26.88
2022-08-05T11:11:53.344Z,26.77
2022-08-05T11:14:57.759Z,26.60
2022-08-05T11:17:58.916Z,26.77
2022-08-05T11:20:34.431Z,26.65
2022-08-05T11:24:04.075Z,26.51
2022-08-05T11:26:43.528Z,26.50
2022-08-05T11:29:37.659Z,26.44
2022-08-05T11:32:24.460Z,26.44
2022-08-05T11:34:54.459Z,26.36
2022-08-05T11:38:29.410Z,26.23
2022-08-05T11:41:03.378Z,26.42
2022-08-05T11:44:08.295Z,26.59
2022-08-05T11:46:58.297Z,26.65
2022-08-05T11:49:25.703Z,27.14
2022-08-05T11:51:53.484Z,27.47
2022-08-05T11:54:33.989Z,27.65
2022-08-05T11:57:07.587Z,27.63
2022-08-05T11:59:50.169Z,27.63
2022-08-05T12:02:30.081Z,27.71
2022-08-05T12:04:59.379Z,27.57
2022-08-05T12:08:08.221Z,27.67
2022-08-05T12:10:19.683Z,27.88
2022-08-05T12:12:46.659Z,28.10
2022-08-05T12:15:38.600Z,28.27
2022-08-05T12:18:11.073Z,28.26
2022-08-05T12:20:38.995Z,28.15
2022-08-05T12:23:12.365Z,28.06
2022-08-05T12:25:56.909Z,27.89
2022-08-05T12:28:37.039Z,27.35
2022-08-05T12:31:05.776Z,27.29
2022-08-05T12:33:36.643Z,27.32
2022-08-05T12:36:08.544Z,27.44
2022-08-05T12:38:38.272Z,27.53
2022-08-05T12:41:13.287Z,27.51
2022-08-05T12:43:51.700Z,27.67
2022-08-05T12:46:28.989Z,27.53
2022-08-05T12:49:13.402Z,27.93
2022-08-05T12:52:14.263Z,27.90
2022-08-05T12:54:40.941Z,27.69
2022-08-05T12:57:10.553Z,27.79
2022-08-05T13:01:58.168Z,27.73
2022-08-05T13:02:41.419Z,27.83
2022-08-05T13:05:12.532Z,27.82
2022-08-05T13:08:00.264Z,27.67
2022-08-05T13:10:28.627Z,27.60
2022-08-05T13:12:58.142Z,27.37
2022-08-05T13:15:41.259Z,27.56
2022-08-05T13:18:19.636Z,27.51
2022-08-05T13:20:48.942Z,27.36
2022-08-05T13:23:22.014Z,27.09
2022-08-05T13:25:52.327Z,26.98
2022-08-05T13:28:27.107Z,26.82
2022-08-05T13:30:53.838Z,26.71
2022-08-05T13:34:24.308Z,26.76
2022-08-05T13:36:09.216Z,26.74
2022-08-05T13:38:38.433Z,26.64
2022-08-05T13:41:10.772Z,26.60
2022-08-05T13:43:44.131Z,26.55
2022-08-05T13:46:14.070Z,26.36
2022-08-05T13:48:57.576Z,26.11
2022-08-05T13:51:36.449Z,25.80
2022-08-05T13:54:11.761Z,25.74
2022-08-05T13:56:45.028Z,25.43
2022-08-05T13:59:24.741Z,25.05
2022-08-05T14:02:00.258Z,24.77
2022-08-05T14:04:49.529Z,24.36
2022-08-05T14:07:56.309Z,24.12
2022-08-05T14:10:09.654Z,24.10
2022-08-05T14:12:36.785Z,24.17
2022-08-05T14:16:05.345Z,24.35
2022-08-05T14:17:51.278Z,24.52
2022-08-05T14:20:21.764Z,24.55
2022-08-05T14:22:54.372Z,24.46
2022-08-05T14:25:22.529Z,24.37
2022-08-05T14:27:54.528Z,24.59
2022-08-05T14:30:21.429Z,24.83
2022-08-05T14:32:48.897Z,24.98
2022-08-05T14:35:16.243Z,25.31
2022-08-05T14:37:52.201Z,25.35
2022-08-05T14:40:24.423Z,25.46
2022-08-05T14:42:51.417Z,25.69
2022-08-05T14:45:18.794Z,25.82
2022-08-05T14:48:05.454Z,25.69
2022-08-05T14:50:32.311Z,25.39
2022-08-05T14:52:59.609Z,25.10
2022-08-05T14:55:28.756Z,24.78
2022-08-05T14:58:11.334Z,24.76
2022-08-05T15:00:59.172Z,24.79
2022-08-05T15:03:33.939Z,24.78
2022-08-05T15:06:08.031Z,24.70
2022-08-05T15:08:59.145Z,24.64
2022-08-05T15:11:51.388Z,24.67
2022-08-05T15:14:33.323Z,24.58
2022-08-05T15:17:01.445Z,24.45
2022-08-05T15:19:30.885Z,24.33
2022-08-05T15:22:00.260Z,24.20
2022-08-05T15:24:27.972Z,24.16
2022-08-05T15:26:55.806Z,24.15
2022-08-05T15:29:22.961Z,24.07
2022-08-05T15:31:53.008Z,24.07
2022-08-05T15:34:33.133Z,24.17
2022-08-05T15:37:06.478Z,24.18
2022-08-05T15:41:00.430Z,24.17
2022-08-05T15:42:49.943Z,24.17
2022-08-05T15:45:14.886Z,24.01
2022-08-05T15:47:43.980Z,23.77
2022-08-05T15:50:15.167Z,23.72
2022-08-05T15:52:52.599Z,23.60
2022-08-05T15:55:25.080Z,23.57
2022-08-05T15:58:07.309Z,23.56
2022-08-05T16:00:50.614Z,23.48
2022-08-05T16:03:20.429Z,23.55
2022-08-05T16:05:50.777Z,23.48
2022-08-05T16:08:19.290Z,23.43
2022-08-05T16:10:45.807Z,23.40
2022-08-05T16:13:12.703Z,23.36
2022-08-05T16:15:51.854Z,23.17
2022-08-05T16:18:18.895Z,23.01
2022-08-05T16:20:46.410Z,23.11
2022-08-05T16:23:12.985Z,23.02
2022-08-05T16:25:40.047Z,22.89
2022-08-05T16:28:10.434Z,23.02
2022-08-05T16:30:37.690Z,22.99
2022-08-05T16:33:04.400Z,22.90
2022-08-05T16:35:32.453Z,22.80
2022-08-05T16:38:03.236Z,22.73
2022-08-05T16:40:52.298Z,22.60
2022-08-05T16:43:23.897Z,22.73
2022-08-05T16:46:03.701Z,22.76
2022-08-05T16:48:35.739Z,22.86
2022-08-05T16:51:03.777Z,22.92
2022-08-05T16:54:02.409Z,22.89
2022-08-05T16:56:23.834Z,22.96
2022-08-05T16:58:50.719Z,22.91
2022-08-05T17:01:18.879Z,22.86
2022-08-05T17:03:45.843Z,22.80
2022-08-05T17:06:12.769Z,22.80
2022-08-05T17:08:53.178Z,22.93
2022-08-05T17:11:23.910Z,22.96
2022-08-05T17:14:00.587Z,22.97
2022-08-05T17:16:37.710Z,22.91
2022-08-05T17:19:07.737Z,22.97
2022-08-05T17:21:37.437Z,22.72
2022-08-05T17:24:28.461Z,22.87
2022-08-05T17:26:56.535Z,22.95
2022-08-05T17:29:33.888Z,23.05
2022-08-05T17:32:11.445Z,22.99
2022-08-05T17:34:43.696Z,22.87
2022-08-05T17:37:41.005Z,22.98
2022-08-05T17:39:59.844Z,22.92
2022-08-05T17:42:31.950Z,22.87
2022-08-05T17:45:09.847Z,22.86
2022-08-05T17:47:47.053Z,22.75
2022-08-05T17:50:27.793Z,22.65
2022-08-05T17:52:55.809Z,22.58
2022-08-05T17:55:34.517Z,22.50
2022-08-05T17:58:06.972Z,22.41
2022-08-05T18:00:36.156Z,22.36
2022-08-05T18:03:06.514Z,22.32
2022-08-05T18:05:35.463Z,22.29
2022-08-05T18:08:02.819Z,22.26
2022-08-05T18:10:32.090Z,22.25
2022-08-05T18:13:00.528Z,22.08
2022-08-05T18:15:31.101Z,22.18
2022-08-05T18:18:05.576Z,22.11
2022-08-05T18:20:38.018Z,22.11
2022-08-05T18:23:09.197Z,22.08
2022-08-05T18:25:39.130Z,22.05
2022-08-05T18:28:06.813Z,22.01
2022-08-05T18:30:34.336Z,21.88
2022-08-05T18:33:01.625Z,21.94
2022-08-05T18:36:01.104Z,21.87
2022-08-05T18:38:19.422Z,21.80
2022-08-05T18:41:56.291Z,21.73
2022-08-05T18:43:43.101Z,21.75
2022-08-05T18:46:15.193Z,21.70
2022-08-05T18:48:42.140Z,21.65
2022-08-05T18:52:04.015Z,21.64
2022-08-05T18:54:15.206Z,21.58
2022-08-05T18:56:41.788Z,21.46
2022-08-05T18:59:43.707Z,21.47
2022-08-05T19:02:04.987Z,21.45
2022-08-05T19:05:01.476Z,21.34
2022-08-05T19:07:45.935Z,21.40
2022-08-05T19:10:16.771Z,21.32
2022-08-05T19:12:43.799Z,21.30
2022-08-05T19:15:57.935Z,21.35
2022-08-05T19:18:10.219Z,21.29
2022-08-05T19:20:41.352Z,21.37
2022-08-05T19:24:06.210Z,21.26
2022-08-05T19:26:02.070Z,21.15
2022-08-05T19:28:29.788Z,21.15
2022-08-05T19:30:56.316Z,21.09
2022-08-05T19:33:35.788Z,21.00
2022-08-05T19:36:06.902Z,20.89
2022-08-05T19:38:35.706Z,20.78
2022-08-05T19:41:07.136Z,20.75
2022-08-05T19:44:06.133Z,20.61
2022-08-05T19:46:29.962Z,20.66
2022-08-05T19:49:00.827Z,20.47
2022-08-05T19:52:05.821Z,20.53
2022-08-05T19:54:21.999Z,20.63
2022-08-05T19:56:55.220Z,20.63
2022-08-05T19:59:54.711Z,20.59
2022-08-05T20:02:08.544Z,20.45
2022-08-05T20:04:35.163Z,20.51
2022-08-05T20:07:02.448Z,20.45
2022-08-05T20:09:29.194Z,20.63
2022-08-05T20:12:15.680Z,20.74
2022-08-05T20:14:42.309Z,20.73
2022-08-05T20:17:10.000Z,20.73
2022-08-05T20:19:42.754Z,20.61
2022-08-05T20:22:09.539Z,20.56
2022-08-05T20:24:36.765Z,20.61
2022-08-05T20:27:11.377Z,20.67
2022-08-05T20:29:38.411Z,20.62
2022-08-05T20:32:06.571Z,20.64
2022-08-05T20:34:33.243Z,20.68
2022-08-05T20:37:00.788Z,20.52
2022-08-05T20:39:36.459Z,20.49
2022-08-05T20:42:04.271Z,20.46
2022-08-05T20:44:32.813Z,20.46
2022-08-05T20:47:06.718Z,20.41
2022-08-05T20:49:39.672Z,20.32
2022-08-05T20:52:07.521Z,20.26
2022-08-05T20:54:43.557Z,20.15
2022-08-05T20:57:42.610Z,20.12
2022-08-05T21:00:20.054Z,20.21
2022-08-05T21:03:07.555Z,20.06
2022-08-05T21:05:48.392Z,19.90
2022-08-05T21:08:32.875Z,20.01
2022-08-05T21:11:10.331Z,19.82
2022-08-05T21:13:48.088Z,19.75
2022-08-05T21:16:30.082Z,19.82
2022-08-05T21:19:01.058Z,19.81
2022-08-05T21:21:44.262Z,19.82
2022-08-05T21:24:16.305Z,19.75
2022-08-05T21:26:53.364Z,19.67
2022-08-05T21:29:31.381Z,19.50
2022-08-05T21:31:58.861Z,19.60
2022-08-05T21:34:25.413Z,19.55
2022-08-05T21:36:54.829Z,19.41
2022-08-05T21:39:26.521Z,19.49
2022-08-05T21:42:01.228Z,19.35
2022-08-05T21:44:28.459Z,19.42
2022-08-05T21:46:57.931Z,19.40
2022-08-05T21:49:58.459Z,19.43
2022-08-05T21:52:23.031Z,19.27
2022-08-05T21:54:55.384Z,19.42
2022-08-05T21:57:31.384Z,19.43
2022-08-05T22:00:11.093Z,19.45
2022-08-05T22:02:38.392Z,19.45
2022-08-05T22:05:05.423Z,19.50
2022-08-05T22:07:40.125Z,19.45
2022-08-05T22:10:27.173Z,19.43
2022-08-05T22:12:57.359Z,19.41
2022-08-05T22:16:04.734Z,19.24
2022-08-05T22:18:11.265Z,19.38
2022-08-05T22:20:39.754Z,19.35
2022-08-05T22:24:02.764Z,19.41
2022-08-05T22:26:49.979Z,19.39
2022-08-05T22:29:18.703Z,19.35
2022-08-05T22:31:59.133Z,19.18
2022-08-05T22:34:28.677Z,19.15
2022-08-05T22:36:56.899Z,19.20
2022-08-05T22:39:29.797Z,19.11
2022-08-05T22:42:09.264Z,19.07
2022-08-05T22:44:38.419Z,19.08
2022-08-05T22:47:05.956Z,19.08
2022-08-05T22:50:20.557Z,19.04
2022-08-05T22:52:32.414Z,18.95
2022-08-05T22:55:01.388Z,18.83
2022-08-05T22:57:34.262Z,18.81
2022-08-05T23:00:08.117Z,18.70
2022-08-05T23:02:39.991Z,18.65
2022-08-05T23:05:15.160Z,18.63
2022-08-05T23:07:43.839Z,18.49
2022-08-05T23:10:14.865Z,18.55
2022-08-05T23:12:43.742Z,18.46
2022-08-05T23:15:10.880Z,18.55
2022-08-05T23:18:01.700Z,18.49
2022-08-05T23:20:25.379Z,18.52
2022-08-05T23:22:54.150Z,18.45
2022-08-05T23:25:52.100Z,18.54
2022-08-05T23:28:10.116Z,18.60
2022-08-05T23:30:39.660Z,18.60
2022-08-05T23:33:22.118Z,18.54
2022-08-05T23:35:55.946Z,18.53
2022-08-05T23:38:24.141Z,18.49
2022-08-05T23:40:52.654Z,18.42
2022-08-05T23:43:25.320Z,18.22
2022-08-05T23:46:20.037Z,18.36
2022-08-05T23:49:00.999Z,18.33
2022-08-05T23:51:53.428Z,18.33
2022-08-05T23:54:33.787Z,18.33
2022-08-05T23:57:04.765Z,18.32
